ADDS METAR Data INFO
IDs: Format: Raw Decoded Include TAF

Data at: 0351 UTC 19 Feb 2018

KDNV 190335Z AUTO 15010KT 10SM BKN036 OVC050 04/00 A2996 RMK AO2 T00421002
KDNV 190315Z AUTO 15012KT 10SM OVC050 04/00 A2996 RMK AO2 T00371005
KDNV 190255Z AUTO 15008KT 10SM BKN055 03/M01 A2998 RMK AO2 T00301007
KDNV 190235Z AUTO 14009KT 10SM CLR 03/M01 A2997 RMK AO2 T00321008
KDNV 190215Z AUTO 15011KT 10SM CLR 03/M01 A2998 RMK AO2 T00321009
KDNV 190155Z AUTO 14011KT 10SM CLR 03/M01 A2998 RMK AO2 T00281010
KDNV 190135Z AUTO 14007KT 10SM CLR 03/M01 A3000 RMK AO2 T00321010
KDNV 190115Z AUTO 14010KT 10SM CLR 03/M01 A3000 RMK AO2 T00321007
KDNV 190055Z AUTO 15008KT 10SM CLR 04/00 A3002 RMK AO2 T00381005
KDNV 190035Z AUTO 14009KT 10SM CLR 04/00 A3002 RMK AO2 T00351004
KDNV 190015Z AUTO 14009KT 10SM CLR 05/00 A3003 RMK AO2 T00451004
KDNV 182355Z AUTO 14009KT 10SM CLR 05/00 A3003 RMK AO2 T00491005 10072 20030
KDNV 182335Z AUTO 16008G14KT 10SM CLR 05/M01 A3005 RMK AO2 T00511006
KDNV 182315Z AUTO 16008KT 10SM CLR 05/M01 A3005 RMK AO2 T00541006
KDNV 182255Z AUTO 15008KT 10SM CLR 06/00 A3005 RMK AO2 T00581005
KDNV 182235Z AUTO 16009KT 10SM CLR 06/M01 A3006 RMK AO2 T00621006
KDNV 182215Z AUTO 15010KT 10SM CLR 07/M01 A3008 RMK AO2 T00671011
KDNV 182155Z AUTO 15012KT 10SM CLR 07/M01 A3008 RMK AO2 T00691010
KDNV 182135Z AUTO 14011KT 10SM CLR 07/00 A3009 RMK AO2 T00710000
KDNV 182115Z AUTO 15012KT 10SM CLR 07/00 A3009 RMK AO2 T00701002
KDNV 182055Z AUTO 14013KT 10SM CLR 07/00 A3010 RMK AO2 T00701004
KDNV 182035Z AUTO 15014KT 10SM CLR 07/00 A3010 RMK AO2 T00671003
KDNV 182015Z AUTO 15011G16KT 10SM CLR 06/00 A3012 RMK AO2 T00630000
KDNV 181955Z AUTO 14012KT 10SM CLR 06/00 A3013 RMK AO2 T00590002
KDNV 181935Z AUTO 14011KT 10SM CLR 06/01 A3015 RMK AO2 T00550006
KDNV 181915Z AUTO 14011G15KT 10SM CLR 05/01 A3016 RMK AO2 T00470005
KDNV 181855Z AUTO 14009KT 10SM CLR 04/01 A3018 RMK AO2 T00430005
KDNV 181835Z AUTO 15008KT 10SM CLR 04/00 A3020 RMK AO2 T00391003
KDNV 181815Z AUTO 16010G14KT 10SM CLR 04/M01 A3022 RMK AO2 T00361009
KDNV 181755Z AUTO 18011G15KT 10SM CLR 03/M01 A3024 RMK AO2 T00301012 10031 21050
KDNV 181735Z AUTO 15009KT 10SM CLR 03/00 A3026 RMK AO2 T00261004
KDNV 181715Z AUTO 16006KT 10SM CLR 02/M01 A3026 RMK AO2 T00201014
KDNV 181655Z AUTO 17008KT 10SM CLR 02/M01 A3028 RMK AO2 T00161013
KDNV 181635Z AUTO 16007KT 10SM CLR 01/M01 A3028 RMK AO2 T00101014
KDNV 181615Z AUTO 17008KT 10SM CLR 00/M01 A3029 RMK AO2 T00021015
KDNV 181555Z AUTO 16009KT 10SM SCT009 00/M02 A3029 RMK AO2 T10021020
KDNV 181535Z AUTO 15012KT 10SM SCT009 M01/M03 A3028 RMK AO2 T10101026
KDNV 181515Z AUTO 15014G18KT 10SM SCT007 M01/M03 A3027 RMK AO2 T10151028
KDNV 181455Z AUTO 14014KT 10SM SCT007 M02/M03 A3026 RMK AO2 T10171031
KDNV 181435Z AUTO 14011KT 10SM CLR M02/M03 A3027 RMK AO2 T10201032
KDNV 181415Z AUTO 16008KT 7SM CLR M02/M03 A3029 RMK AO2 T10251034
KDNV 181355Z AUTO 15007KT 7SM CLR M03/M04 A3029 RMK AO2 T10321039
KDNV 181335Z AUTO 14007KT 7SM CLR M04/M04 A3028 RMK AO2 T10381044
KDNV 181315Z AUTO 14006KT 7SM CLR M04/M05 A3028 RMK AO2 T10401046
KDNV 181255Z AUTO 14006KT 7SM CLR M04/M05 A3027 RMK AO2 T10451050
KDNV 181235Z AUTO 14005KT 7SM CLR M05/M05 A3027 RMK AO2 T10461052
KDNV 181215Z AUTO 14005KT 10SM CLR M05/M05 A3028 RMK AO2 T10471054
KDNV 181155Z AUTO 13004KT 10SM CLR M05/M06 A3027 RMK AO2 70003 T10501056 11029 21060
KDNV 181135Z AUTO 12003KT 10SM CLR M05/M06 A3026 RMK AO2 T10511057
KDNV 181115Z AUTO 11003KT 7SM CLR M05/M06 A3026 RMK AO2 T10511056
KDNV 181055Z AUTO 10003KT 7SM CLR M06/M06 A3025 RMK AO2 T10571063
KDNV 181035Z AUTO 00000KT 7SM CLR M05/M06 A3025 RMK AO2 T10521058
KDNV 181015Z AUTO 00000KT 10SM CLR M05/M06 A3025 RMK AO2 T10501058
KDNV 180955Z AUTO 00000KT 10SM CLR M04/M05 A3025 RMK AO2 T10441053
KDNV 180935Z AUTO 00000KT 10SM CLR M05/M06 A3024 RMK AO2 T10461056
KDNV 180915Z AUTO 33006KT 10SM CLR M03/M05 A3023 RMK AO2 T10351047
KDNV 180855Z AUTO 33007KT 10SM CLR M05/M06 A3023 RMK AO2 T10471056
KDNV 180835Z AUTO 32005KT 10SM CLR M04/M05 A3024 RMK AO2 T10401050
KDNV 180815Z AUTO 30004KT 10SM CLR M04/M05 A3025 RMK AO2 T10451051
KDNV 180755Z AUTO 00000KT 10SM CLR M04/M05 A3024 RMK AO2 T10451055
KDNV 180740Z AUTO 32004KT 10SM CLR M05/M06 A3022 RMK AO2 T10481057
KDNV 180715Z AUTO 31003KT 10SM CLR M04/M04 A3022 RMK AO2 T10361045
KDNV 180655Z AUTO 26004KT 10SM CLR M04/M05 A3023 RMK AO2 T10401049
KDNV 180635Z AUTO 23005KT 10SM CLR M04/M05 A3023 RMK AO2 T10361048
KDNV 180615Z AUTO 23003KT 10SM CLR M03/M04 A3021 RMK AO2 T10311044
KDNV 180555Z AUTO 25006KT 10SM CLR M03/M04 A3020 RMK AO2 T10301044 10010 21030 400101059
KDNV 180535Z AUTO 27006KT 10SM CLR M03/M04 A3019 RMK AO2 T10281042
KDNV 180515Z AUTO 28007KT 10SM CLR M02/M04 A3018 RMK AO2 T10211040
KDNV 180455Z AUTO 28007KT 10SM SCT017 M02/M04 A3018 RMK AO2 T10191038
KDNV 180435Z AUTO 30011KT 10SM BKN017 M01/M04 A3017 RMK AO2 T10141036
KDNV 180415Z AUTO 29007KT 10SM SCT019 M01/M03 A3016 RMK AO2 T10131035
KDNV 180355Z AUTO 30012G15KT 10SM CLR M01/M03 A3014 RMK AO2 T10121033
KDNV 180335Z AUTO 30014G19KT 10SM SCT015 M01/M03 A3013 RMK AO2 T10101034
KDNV 180315Z AUTO 31017G24KT 10SM BKN017 00/M03 A3012 RMK AO2 T10041030
KDNV 180255Z AUTO 30011KT 10SM OVC017 00/M02 A3010 RMK AO2 T00001021
KDNV 180235Z AUTO 30011KT 10SM OVC019 00/M02 A3009 RMK AO2 T00001021
KDNV 180215Z AUTO 30019G24KT 10SM OVC019 01/M02 A3008 RMK AO2 T00051021
KDNV 180155Z AUTO 29017G22KT 10SM OVC019 01/M01 A3008 RMK AO2 T00061014
KDNV 180135Z AUTO 29011G17KT 10SM OVC019 01/M01 A3007 RMK AO2 T00061008
KDNV 180115Z AUTO 29011G17KT 10SM BKN021 OVC028 01/M01 A3006 RMK AO2 T00061006
KDNV 180055Z AUTO 28013G19KT 10SM SCT014 SCT022 OVC028 01/M01 A3005 RMK AO2 T00071006
KDNV 180035Z AUTO 28015G20KT 10SM BKN012 OVC022 01/00 A3003 RMK AO2 T00100000
KDNV 180015Z AUTO 27020G25KT 10SM BKN010 BKN014 OVC020 01/01 A3002 RMK AO2 T00100005
KDNV 172355Z AUTO 26017G23KT 5SM -RA OVC006 01/01 A3000 RMK AO2 60003 T00070005 10007 20000
KDNV 172335Z AUTO 24012G20KT 5SM -DZ OVC004 01/01 A3000 RMK AO2 T00060005
KDNV 172315Z AUTO 23011G17KT 3SM BR OVC004 00/00 A2998 RMK AO2 T00030001
KDNV 172255Z AUTO 22010KT 3SM -RA OVC004 00/00 A2998 RMK AO2 P0001 T00000000
KDNV 172235Z AUTO 21010KT 2SM -SN OVC004 00/00 A2997 RMK AO2 P0001 T00000000
KDNV 172215Z AUTO 21008KT 1SM -SN OVC004 00/00 A2996 RMK AO2 P0001 T00000000
KDNV 172155Z AUTO 20007KT 1 1/4SM -SN OVC004 00/00 A2995 RMK AO2 P0002 T00000000
KDNV 172135Z AUTO 20008KT 1 1/4SM -SN OVC004 00/00 A2995 RMK AO2 P0001 T00000000
KDNV 172115Z AUTO 20006KT 1 1/4SM -SN OVC006 00/00 A2995 RMK AO2 P0001 T00000000
KDNV 172055Z AUTO 20008KT 2 1/2SM -SN OVC006 00/00 A2995 RMK AO2 T00020000
KDNV 172035Z AUTO 19008KT 2 1/2SM -SN OVC006 00/00 A2994 RMK AO2 T00001001
KDNV 172015Z AUTO 19009KT 2SM -SN OVC008 00/00 A2995 RMK AO2 T00001004
KDNV 171955Z AUTO 21010KT 4SM -SN OVC008 00/M01 A2995 RMK AO2 T00011006
KDNV 171935Z AUTO 19010KT 7SM OVC010 00/M01 A2995 RMK AO2 T00021008
KDNV 171915Z AUTO 18010KT 10SM OVC010 00/M01 A2996 RMK AO2 T00021010
KDNV 171855Z AUTO 17007KT 10SM OVC012 00/M01 A2996 RMK AO2 T00011013
KDNV 171835Z AUTO 18010KT 10SM OVC014 00/M01 A2998 RMK AO2 T00011014
KDNV 171815Z AUTO 20009KT 7SM -SN BKN016 OVC024 00/M01 A3000 RMK AO2 T00011015
KDNV 171755Z AUTO 20011KT 10SM SCT018 BKN026 OVC090 00/M02 A3001 RMK AO2 T00031016 10004 21035
KDNV 171735Z AUTO 18009KT 10SM SCT031 BKN075 OVC090 00/M02 A3002 RMK AO2 T00021020
KDNV 171715Z AUTO 17007KT 10SM SCT075 OVC080 00/M02 A3002 RMK AO2 T00001022
KDNV 171655Z AUTO 16007KT 10SM SCT070 OVC090 00/M02 A3003 RMK AO2 T10021025
KDNV 171635Z AUTO 15007KT 10SM OVC090 00/M03 A3004 RMK AO2 T10051026
KDNV 171615Z AUTO 16004KT 10SM OVC100 M01/M03 A3008 RMK AO2 T10061029
KDNV 171555Z AUTO 17007KT 10SM BKN110 M01/M03 A3007 RMK AO2 T10061029